Time;durP1;ratioP1;P1;durP2;ratioP2;P2;SDS_P1;SDS_P2;PMS_P1;PMS_P2;Temp;Humidity;BMP_temperature;BMP_pressure;BME280_temperature;BME280_humidity;BME280_pressure;Samples;Min_cycle;Max_cycle;Signal;HPM_P1;HPM_P2
2023/06/16 00:01:09;;;;;;;6.57;4.65;;;16.40;97.80;;;;;;5042746;28;20664;-72
2023/06/16 00:03:35;;;;;;;6.97;5.05;;;16.40;98.30;;;;;;5041126;28;20048;-72
2023/06/16 00:06:14;;;;;;;9.07;5.28;;;16.40;98.60;;;;;;5077024;28;20127;-76
2023/06/16 00:08:42;;;;;;;8.77;5.40;;;16.40;98.90;;;;;;5057467;28;20123;-76
2023/06/16 00:11:08;;;;;;;6.22;5.60;;;16.30;99.20;;;;;;5042244;28;20113;-75
2023/06/16 00:13:34;;;;;;;7.43;5.35;;;16.30;99.60;;;;;;5056542;28;20601;-75
2023/06/16 00:16:00;;;;;;;5.93;4.97;;;16.20;99.90;;;;;;5043954;28;20079;-74
2023/06/16 00:18:27;;;;;;;7.53;5.68;;;16.20;99.90;;;;;;5026138;28;20052;-75
2023/06/16 00:20:54;;;;;;;7.68;5.30;;;16.20;99.90;;;;;;5024789;28;20043;-74
2023/06/16 00:23:23;;;;;;;7.65;5.63;;;16.20;99.90;;;;;;5026573;28;20040;-75
2023/06/16 00:25:50;;;;;;;9.60;4.90;;;16.20;99.90;;;;;;5026096;28;20127;-75
2023/06/16 00:28:16;;;;;;;8.05;5.07;;;16.20;99.90;;;;;;5043611;28;20062;-75
2023/06/16 00:30:43;;;;;;;7.03;5.00;;;16.10;99.90;;;;;;5053899;28;20048;-73
2023/06/16 00:33:10;;;;;;;9.20;5.25;;;16.10;99.90;;;;;;5051625;28;20575;-73
2023/06/16 00:35:36;;;;;;;7.65;5.30;;;16.00;99.90;;;;;;5037330;28;20043;-73
2023/06/16 00:38:02;;;;;;;9.90;5.38;;;16.00;99.90;;;;;;5052811;28;20100;-72
2023/06/16 00:40:28;;;;;;;7.20;5.18;;;15.90;99.90;;;;;;5055023;28;20051;-72
2023/06/16 00:42:57;;;;;;;6.85;5.20;;;15.80;99.90;;;;;;5022960;28;20759;-72
2023/06/16 00:45:24;;;;;;;6.50;5.50;;;15.80;99.90;;;;;;5053838;28;20104;-73
2023/06/16 00:47:51;;;;;;;8.13;5.32;;;15.80;99.90;;;;;;5038602;28;20040;-73
2023/06/16 00:50:18;;;;;;;6.68;5.15;;;15.70;99.90;;;;;;5054553;28;20052;-72
2023/06/16 00:52:44;;;;;;;7.82;5.20;;;15.70;99.90;;;;;;5050267;28;20639;-71
2023/06/16 00:55:11;;;;;;;9.35;5.22;;;15.70;99.90;;;;;;5054192;28;20055;-72
2023/06/16 00:57:40;;;;;;;8.63;6.03;;;15.70;99.90;;;;;;5050402;28;21541;-72
2023/06/16 01:00:07;;;;;;;8.50;6.82;;;15.70;99.90;;;;;;5056070;28;20795;-72
2023/06/16 01:02:33;;;;;;;10.50;7.55;;;15.60;99.90;;;;;;5042978;28;20062;-72
2023/06/16 01:05:00;;;;;;;7.93;6.72;;;15.60;99.90;;;;;;5024542;28;20079;-72
2023/06/16 01:07:39;;;;;;;7.20;6.30;;;15.50;99.90;;;;;;5055027;28;20056;-72
2023/06/16 01:10:21;;;;;;;7.20;6.32;;;15.40;99.90;;;;;;5054258;28;20602;-72
2023/06/16 01:13:00;;;;;;;8.05;6.30;;;15.30;99.90;;;;;;5054708;28;20066;-72
2023/06/16 01:15:27;;;;;;;7.87;7.03;;;15.20;99.90;;;;;;5055952;28;20051;-72
2023/06/16 01:17:59;;;;;;;7.88;6.57;;;15.10;99.90;;;;;;5046687;28;20048;-72
2023/06/16 01:20:59;;;;;;;8.60;6.05;;;15.00;99.90;;;;;;5038774;28;20683;-72
2023/06/16 01:23:47;;;;;;;9.85;6.90;;;14.90;99.90;;;;;;5059494;28;20043;-72
2023/06/16 01:26:14;;;;;;;7.68;6.50;;;14.80;99.90;;;;;;5032521;28;20655;-72
2023/06/16 01:28:43;;;;;;;7.90;7.10;;;14.70;99.90;;;;;;5037562;28;20048;-72
2023/06/16 01:31:12;;;;;;;7.73;6.80;;;14.70;99.90;;;;;;5038366;28;20135;-73
2023/06/16 01:33:39;;;;;;;7.32;6.63;;;14.60;99.90;;;;;;5034459;28;20298;-72
2023/06/16 01:36:06;;;;;;;8.30;6.93;;;14.60;99.90;;;;;;5027210;28;20182;-73
2023/06/16 01:38:32;;;;;;;8.30;5.93;;;14.50;99.90;;;;;;5055883;28;20048;-73
2023/06/16 01:41:01;;;;;;;13.77;6.60;;;14.50;99.90;;;;;;5037749;28;20059;-73
2023/06/16 01:43:27;;;;;;;8.10;5.97;;;14.50;99.90;;;;;;5022231;28;20068;-74
2023/06/16 01:45:54;;;;;;;7.97;6.13;;;14.50;99.90;;;;;;4997675;28;20650;-73
2023/06/16 01:48:20;;;;;;;5.97;5.35;;;14.50;99.90;;;;;;5010137;28;20071;-73
2023/06/16 01:50:47;;;;;;;6.47;5.47;;;14.60;99.90;;;;;;5033159;28;20132;-74
2023/06/16 01:53:13;;;;;;;7.68;5.82;;;14.60;99.90;;;;;;5016897;28;20168;-72
2023/06/16 01:55:38;;;;;;;6.43;5.55;;;14.60;99.90;;;;;;5003885;28;20450;-73
2023/06/16 01:58:06;;;;;;;10.60;6.47;;;14.60;99.90;;;;;;5010306;28;20067;-73
2023/06/16 02:00:35;;;;;;;10.23;6.20;;;14.60;99.90;;;;;;5051414;28;20084;-73
2023/06/16 02:03:40;;;;;;;9.47;7.37;;;14.70;99.90;;;;;;5040605;28;20081;-71
2023/06/16 02:06:10;;;;;;;6.68;5.65;;;14.70;99.90;;;;;;5022337;28;20040;-72
2023/06/16 02:08:39;;;;;;;6.75;6.15;;;14.60;99.90;;;;;;5036819;28;20052;-72
2023/06/16 02:11:05;;;;;;;7.65;6.00;;;14.50;99.90;;;;;;5040927;28;20120;-72
2023/06/16 02:13:31;;;;;;;8.05;6.93;;;14.50;99.90;;;;;;5041046;28;20123;-74
2023/06/16 02:15:58;;;;;;;7.53;5.93;;;14.50;99.90;;;;;;5040569;28;20094;-72
2023/06/16 02:18:27;;;;;;;6.85;5.60;;;14.50;99.90;;;;;;5022991;28;20691;-73
2023/06/16 02:20:56;;;;;;;6.47;5.88;;;14.50;99.90;;;;;;4993822;28;20037;-73
2023/06/16 02:23:22;;;;;;;9.40;5.93;;;14.60;99.90;;;;;;5041420;28;20044;-73
2023/06/16 02:25:48;;;;;;;7.93;6.85;;;14.50;99.90;;;;;;5014892;28;20382;-73
2023/06/16 02:28:14;;;;;;;8.88;7.28;;;14.50;99.90;;;;;;5060957;28;20040;-73
2023/06/16 02:30:39;;;;;;;11.43;8.60;;;14.50;99.90;;;;;;5026266;28;20059;-73
2023/06/16 02:33:05;;;;;;;11.23;9.13;;;14.40;99.90;;;;;;5060075;28;20412;-73
2023/06/16 02:35:31;;;;;;;10.52;8.90;;;14.30;99.90;;;;;;5029897;28;20048;-73
2023/06/16 02:37:57;;;;;;;10.45;9.32;;;14.30;99.90;;;;;;5043366;28;20043;-73
2023/06/16 02:40:23;;;;;;;10.20;7.85;;;14.20;99.90;;;;;;5028921;28;20534;-73
2023/06/16 02:42:48;;;;;;;8.45;7.47;;;14.10;99.90;;;;;;5043153;28;20629;-73
2023/06/16 02:45:15;;;;;;;10.25;8.35;;;14.10;99.90;;;;;;5042017;28;20094;-73
2023/06/16 02:47:41;;;;;;;11.50;7.78;;;14.00;99.90;;;;;;5042071;28;20048;-71
2023/06/16 02:50:08;;;;;;;10.15;6.78;;;14.00;99.90;;;;;;5045412;28;20032;-72
2023/06/16 02:52:35;;;;;;;9.43;8.30;;;13.90;99.90;;;;;;5018500;28;20052;-72
2023/06/16 02:55:01;;;;;;;20.92;9.05;;;13.90;99.90;;;;;;5043332;28;20676;-73
2023/06/16 02:57:27;;;;;;;13.60;7.93;;;13.90;99.90;;;;;;5061457;28;20081;-73
2023/06/16 02:59:55;;;;;;;11.50;10.30;;;13.80;99.90;;;;;;5047912;28;20499;-72
2023/06/16 03:02:21;;;;;;;10.10;9.07;;;13.80;99.90;;;;;;5028843;28;20078;-73
2023/06/16 03:04:50;;;;;;;13.68;12.48;;;13.80;99.90;;;;;;5016810;28;20040;-72
2023/06/16 03:07:20;;;;;;;13.38;11.98;;;13.80;99.90;;;;;;5046824;28;20040;-73
2023/06/16 03:09:46;;;;;;;17.20;15.48;;;13.80;99.90;;;;;;5065855;28;20073;-74
2023/06/16 03:12:12;;;;;;;15.27;12.98;;;13.80;99.90;;;;;;5030606;28;20537;-73
2023/06/16 03:14:38;;;;;;;16.13;14.63;;;13.80;99.90;;;;;;5063222;28;20146;-73
2023/06/16 03:17:04;;;;;;;14.82;13.30;;;13.80;99.90;;;;;;5064457;28;20426;-73
2023/06/16 03:19:29;;;;;;;15.15;13.55;;;13.80;99.90;;;;;;5031958;28;20048;-73
2023/06/16 03:21:55;;;;;;;14.60;13.27;;;13.80;99.90;;;;;;5061897;28;20120;-73
2023/06/16 03:24:21;;;;;;;14.73;13.25;;;13.80;99.90;;;;;;5062035;28;20036;-74
2023/06/16 03:26:47;;;;;;;14.20;12.68;;;13.80;99.90;;;;;;5048492;28;20106;-73
2023/06/16 03:29:13;;;;;;;16.52;15.00;;;13.80;99.90;;;;;;5063499;28;20131;-72
2023/06/16 03:31:39;;;;;;;15.63;14.18;;;13.80;99.90;;;;;;5062570;28;20059;-71
2023/06/16 03:34:05;;;;;;;16.45;14.98;;;13.80;99.90;;;;;;5050512;28;20127;-72
2023/06/16 03:36:39;;;;;;;11.38;10.38;;;13.80;99.90;;;;;;5044663;28;20048;-73
2023/06/16 03:39:05;;;;;;;17.42;15.63;;;13.80;99.90;;;;;;5064366;28;20040;-72
2023/06/16 03:41:34;;;;;;;16.85;15.20;;;13.80;99.90;;;;;;5049575;28;20097;-72
2023/06/16 03:44:00;;;;;;;16.70;15.20;;;13.90;99.90;;;;;;5059302;28;20135;-72
2023/06/16 03:46:29;;;;;;;15.25;13.93;;;13.80;99.90;;;;;;5062040;28;20087;-73
2023/06/16 03:48:56;;;;;;;15.15;13.65;;;13.80;99.90;;;;;;5044699;28;20044;-73
2023/06/16 03:51:24;;;;;;;16.42;13.40;;;13.70;99.90;;;;;;5047369;28;20059;-73
2023/06/16 03:53:51;;;;;;;15.05;12.02;;;13.70;99.90;;;;;;5046065;28;20095;-73
2023/06/16 03:56:17;;;;;;;13.93;12.50;;;13.70;99.90;;;;;;5063201;28;20040;-73
2023/06/16 03:58:43;;;;;;;14.48;13.10;;;13.70;99.90;;;;;;5045034;28;20056;-73
2023/06/16 04:01:09;;;;;;;14.80;13.32;;;13.70;99.90;;;;;;5059564;28;20040;-73
2023/06/16 04:03:35;;;;;;;17.20;15.52;;;13.60;99.90;;;;;;5048174;28;20061;-73
2023/06/16 04:06:01;;;;;;;17.55;15.77;;;13.70;99.90;;;;;;5033157;28;20589;-73
2023/06/16 04:08:27;;;;;;;13.90;12.60;;;13.70;99.90;;;;;;5063671;28;20049;-73
2023/06/16 04:10:57;;;;;;;14.98;13.57;;;13.70;99.90;;;;;;5051604;28;20194;-73
2023/06/16 04:13:26;;;;;;;13.88;12.48;;;13.70;99.90;;;;;;5046497;28;20068;-73
2023/06/16 04:15:52;;;;;;;14.35;12.90;;;13.80;99.90;;;;;;5052976;28;20044;-73
2023/06/16 04:18:18;;;;;;;14.65;12.90;;;13.80;99.90;;;;;;5062382;28;20032;-73
2023/06/16 04:20:44;;;;;;;17.45;15.50;;;13.90;99.90;;;;;;5058681;28;20131;-73
2023/06/16 04:23:10;;;;;;;14.57;13.27;;;14.00;99.90;;;;;;5058459;28;20174;-73
2023/06/16 04:25:37;;;;;;;16.67;15.10;;;14.10;99.90;;;;;;5061717;28;20135;-72
2023/06/16 04:28:03;;;;;;;17.48;15.88;;;14.20;99.90;;;;;;5045143;28;20105;-72
2023/06/16 04:30:30;;;;;;;15.65;14.25;;;14.20;99.90;;;;;;5063038;28;20142;-72
2023/06/16 04:32:59;;;;;;;16.63;15.07;;;14.30;99.90;;;;;;5058479;28;20052;-73
2023/06/16 04:35:31;;;;;;;16.92;15.48;;;14.40;99.90;;;;;;5064041;28;20353;-73
2023/06/16 04:38:03;;;;;;;17.98;16.38;;;14.50;99.90;;;;;;5058632;28;20511;-73
2023/06/16 04:40:32;;;;;;;16.40;14.80;;;14.60;99.90;;;;;;5062121;28;20032;-73
2023/06/16 04:42:58;;;;;;;18.80;16.83;;;14.60;99.90;;;;;;5060589;28;20046;-73
2023/06/16 04:45:24;;;;;;;18.92;17.25;;;14.80;99.90;;;;;;5061540;28;20044;-71
2023/06/16 04:47:53;;;;;;;19.48;17.58;;;14.80;99.90;;;;;;5060081;28;21350;-72
2023/06/16 04:50:19;;;;;;;19.40;17.60;;;14.90;99.90;;;;;;5041823;28;20544;-72
2023/06/16 04:52:47;;;;;;;18.85;17.15;;;15.00;99.90;;;;;;5044821;28;20127;-72
2023/06/16 04:55:16;;;;;;;18.45;16.85;;;15.10;99.90;;;;;;5059399;28;20040;-73
2023/06/16 04:57:43;;;;;;;19.13;17.33;;;15.20;99.90;;;;;;5042957;28;20488;-74
2023/06/16 05:00:09;;;;;;;19.08;17.38;;;15.30;99.90;;;;;;5079849;28;20125;-72
2023/06/16 05:02:38;;;;;;;17.23;15.73;;;15.40;99.90;;;;;;5012739;28;20052;-73
2023/06/16 05:05:05;;;;;;;19.80;18.10;;;15.50;99.90;;;;;;5046775;28;20079;-73
2023/06/16 05:07:31;;;;;;;21.15;19.15;;;15.50;99.90;;;;;;5076661;28;20047;-71
2023/06/16 05:09:57;;;;;;;18.33;16.75;;;15.60;99.90;;;;;;5059942;28;20047;-70
2023/06/16 05:12:27;;;;;;;18.35;16.63;;;15.60;99.90;;;;;;5055580;28;20049;-73
2023/06/16 05:14:53;;;;;;;;;;;15.60;99.90;;;;;;5062622;28;20167;-73
2023/06/16 05:17:19;;;;;;;18.83;17.08;;;15.60;99.90;;;;;;5059185;28;20677;-73
2023/06/16 05:19:48;;;;;;;20.08;18.27;;;15.60;99.90;;;;;;5055456;28;20059;-73
2023/06/16 05:22:14;;;;;;;23.33;21.10;;;15.60;99.90;;;;;;5042936;28;20047;-73
2023/06/16 05:24:40;;;;;;;20.30;18.10;;;15.60;99.90;;;;;;5043194;28;20033;-73
2023/06/16 05:27:05;;;;;;;21.88;19.85;;;15.70;99.90;;;;;;5042697;28;20135;-73
2023/06/16 05:29:31;;;;;;;23.33;21.30;;;15.70;99.90;;;;;;5027465;28;20086;-72
2023/06/16 05:31:57;;;;;;;22.90;20.77;;;15.80;99.90;;;;;;5025441;28;20067;-72
2023/06/16 05:34:23;;;;;;;22.42;20.42;;;15.90;99.90;;;;;;5042884;28;20071;-72
2023/06/16 05:36:49;;;;;;;22.98;20.98;;;15.90;99.90;;;;;;5038553;28;20039;-74
2023/06/16 05:39:15;;;;;;;22.10;20.08;;;15.90;99.90;;;;;;5056554;28;20044;-74
2023/06/16 05:41:42;;;;;;;19.95;18.08;;;16.00;99.90;;;;;;5040628;28;20050;-75
2023/06/16 05:44:08;;;;;;;22.05;20.25;;;16.10;99.90;;;;;;5059122;28;20043;-75
2023/06/16 05:46:34;;;;;;;23.83;21.80;;;16.20;99.90;;;;;;5009659;28;20044;-75
2023/06/16 05:49:00;;;;;;;22.05;20.15;;;16.20;99.90;;;;;;5061345;28;20035;-75
2023/06/16 05:51:26;;;;;;;23.58;21.42;;;16.30;99.90;;;;;;5026039;28;20048;-75
2023/06/16 05:53:51;;;;;;;25.50;23.25;;;16.40;99.90;;;;;;5025109;28;20052;-75
2023/06/16 05:56:17;;;;;;;25.48;23.38;;;16.50;99.90;;;;;;5059993;28;20044;-74
2023/06/16 05:58:43;;;;;;;28.17;25.75;;;16.50;99.90;;;;;;5058007;28;20483;-73
2023/06/16 06:01:11;;;;;;;27.40;25.10;;;16.60;99.90;;;;;;5037214;28;20138;-74
2023/06/16 06:03:37;;;;;;;25.33;23.10;;;16.70;99.90;;;;;;5054529;28;20130;-74
2023/06/16 06:06:03;;;;;;;26.90;24.38;;;16.80;99.90;;;;;;5025622;28;20055;-73
2023/06/16 06:08:29;;;;;;;27.08;24.73;;;16.80;99.90;;;;;;5055262;28;20138;-72
2023/06/16 06:10:55;;;;;;;24.48;22.27;;;16.90;99.90;;;;;;5037392;28;20040;-74
2023/06/16 06:13:21;;;;;;;25.13;22.90;;;17.00;99.90;;;;;;5053039;28;20079;-74
2023/06/16 06:15:47;;;;;;;24.58;22.27;;;17.00;99.90;;;;;;5057360;28;20136;-74
2023/06/16 06:18:13;;;;;;;25.95;22.35;;;17.10;99.90;;;;;;5052587;28;20043;-73
2023/06/16 06:20:39;;;;;;;20.55;18.77;;;17.20;99.90;;;;;;5040916;28;20050;-72
2023/06/16 06:23:05;;;;;;;20.80;18.83;;;17.20;99.90;;;;;;5067591;28;20504;-74
2023/06/16 06:25:35;;;;;;;21.77;19.40;;;17.30;99.90;;;;;;5040964;28;20051;-74
2023/06/16 06:28:01;;;;;;;20.02;17.98;;;17.40;99.90;;;;;;5039209;28;21954;-73
2023/06/16 06:30:27;;;;;;;20.23;18.27;;;17.50;99.90;;;;;;5169915;22;20011;-71
2023/06/16 06:32:55;;;;;;;19.70;17.92;;;17.50;99.90;;;;;;5033539;28;20352;-72
2023/06/16 06:35:21;;;;;;;19.38;17.63;;;17.60;99.90;;;;;;5024378;28;20498;-72
2023/06/16 06:37:47;;;;;;;18.40;16.65;;;17.70;99.90;;;;;;4993082;28;20077;-71
2023/06/16 06:40:13;;;;;;;18.38;16.65;;;17.80;99.90;;;;;;5024831;28;20052;-72
2023/06/16 06:42:38;;;;;;;17.00;15.40;;;17.90;99.90;;;;;;4979883;28;20048;-72
2023/06/16 06:45:05;;;;;;;20.77;18.85;;;18.00;99.90;;;;;;5015735;28;20044;-71
2023/06/16 06:47:30;;;;;;;19.45;17.73;;;18.10;99.90;;;;;;4998027;28;20053;-72
2023/06/16 06:49:56;;;;;;;18.48;16.88;;;18.20;99.90;;;;;;4976426;28;20048;-72
2023/06/16 06:52:22;;;;;;;18.40;16.70;;;18.30;99.90;;;;;;5005958;28;20075;-72
2023/06/16 06:54:48;;;;;;;18.25;16.45;;;18.50;99.90;;;;;;5006727;28;20052;-72
2023/06/16 06:57:15;;;;;;;17.00;15.40;;;18.60;99.90;;;;;;5043333;28;20049;-72
2023/06/16 06:59:44;;;;;;;16.73;15.13;;;18.70;99.90;;;;;;5015707;28;20850;-71
2023/06/16 07:02:10;;;;;;;16.85;15.40;;;18.90;99.90;;;;;;5011799;28;20053;-72
2023/06/16 07:04:38;;;;;;;16.08;14.57;;;19.00;99.90;;;;;;5012580;28;20048;-71
2023/06/16 07:07:04;;;;;;;15.00;13.70;;;19.10;99.90;;;;;;5010384;28;20043;-72
2023/06/16 07:09:30;;;;;;;12.65;11.43;;;19.30;99.90;;;;;;5008921;28;20052;-71
2023/06/16 07:11:56;;;;;;;15.25;13.95;;;19.40;99.90;;;;;;5005741;28;20061;-72
2023/06/16 07:14:22;;;;;;;13.48;12.15;;;19.50;99.90;;;;;;4990926;28;20140;-72
2023/06/16 07:16:51;;;;;;;13.10;11.80;;;19.70;99.90;;;;;;5008287;28;20041;-71
2023/06/16 07:19:16;;;;;;;14.13;12.82;;;19.80;99.90;;;;;;5024120;28;20053;-72
2023/06/16 07:21:42;;;;;;;13.35;12.13;;;20.00;99.90;;;;;;5011006;28;20677;-72
2023/06/16 07:24:08;;;;;;;14.55;13.18;;;20.20;99.90;;;;;;4997554;28;20056;-72
2023/06/16 07:26:34;;;;;;;13.45;12.32;;;20.30;99.90;;;;;;5015602;28;20539;-73
2023/06/16 07:29:00;;;;;;;13.55;12.15;;;20.40;99.90;;;;;;5014199;28;20445;-71
2023/06/16 07:31:30;;;;;;;13.85;12.40;;;20.50;99.90;;;;;;5004844;28;20140;-71
2023/06/16 07:33:56;;;;;;;;;;;20.60;99.90;;;;;;5037795;28;20745;-71
2023/06/16 07:36:22;;;;;;;13.55;12.15;;;20.70;99.90;;;;;;5032328;28;19928;-71
2023/06/16 07:38:48;;;;;;;12.93;11.82;;;20.80;99.90;;;;;;5023984;28;20117;-72
2023/06/16 07:41:13;;;;;;;13.20;11.88;;;21.00;99.90;;;;;;4987708;28;20139;-72
2023/06/16 07:43:39;;;;;;;11.60;10.57;;;21.10;99.90;;;;;;5014378;28;20063;-72
2023/06/16 07:46:05;;;;;;;12.15;11.05;;;21.20;99.90;;;;;;5031727;28;20048;-71
2023/06/16 07:48:31;;;;;;;13.32;12.00;;;21.40;99.90;;;;;;5028282;28;20673;-71
2023/06/16 07:50:57;;;;;;;13.07;11.88;;;21.60;99.90;;;;;;5023217;28;20052;-72
2023/06/16 07:53:23;;;;;;;12.95;11.88;;;21.60;99.90;;;;;;5022777;28;20159;-71
2023/06/16 07:55:49;;;;;;;13.07;11.98;;;21.70;99.90;;;;;;5016226;28;20067;-72
2023/06/16 07:58:14;;;;;;;12.32;11.07;;;21.80;99.90;;;;;;5036169;28;20041;-72
2023/06/16 08:00:40;;;;;;;12.15;10.95;;;21.90;99.90;;;;;;5018249;28;20059;-71
2023/06/16 08:03:06;;;;;;;12.80;11.70;;;22.00;99.90;;;;;;5022727;28;20048;-70
2023/06/16 08:05:32;;;;;;;11.25;10.10;;;22.10;99.90;;;;;;5020435;28;20111;-71
2023/06/16 08:07:58;;;;;;;13.15;11.85;;;22.20;99.90;;;;;;5005485;28;20045;-71
2023/06/16 08:10:25;;;;;;;11.73;10.63;;;22.30;99.90;;;;;;5015840;28;20519;-71
2023/06/16 08:12:51;;;;;;;11.23;9.40;;;22.30;99.90;;;;;;5005311;28;20079;-71
2023/06/16 08:15:18;;;;;;;10.13;9.13;;;22.40;99.90;;;;;;5023502;28;20282;-72
2023/06/16 08:17:45;;;;;;;9.25;8.35;;;22.60;99.90;;;;;;5037972;28;20048;-73
2023/06/16 08:20:12;;;;;;;12.68;9.00;;;22.70;99.90;;;;;;5016362;28;20048;-72
2023/06/16 08:22:37;;;;;;;10.38;9.48;;;22.90;99.50;;;;;;5008268;28;20049;-72
2023/06/16 08:25:05;;;;;;;10.77;9.70;;;22.90;98.90;;;;;;5020121;28;20114;-71
2023/06/16 08:27:30;;;;;;;9.20;8.30;;;23.10;98.70;;;;;;5018084;28;21384;-71
2023/06/16 08:29:57;;;;;;;9.85;8.85;;;23.20;98.30;;;;;;5012727;28;20056;-71
2023/06/16 08:32:23;;;;;;;9.90;9.00;;;23.30;97.30;;;;;;5017060;28;20048;-71
2023/06/16 08:34:48;;;;;;;10.20;8.38;;;23.40;96.20;;;;;;5018759;28;20036;-71
2023/06/16 08:37:14;;;;;;;11.00;10.05;;;23.40;96.00;;;;;;5025283;28;20529;-72
2023/06/16 08:39:43;;;;;;;10.27;7.90;;;23.50;95.20;;;;;;5035375;28;20392;-71
2023/06/16 08:42:13;;;;;;;9.20;7.40;;;23.50;94.30;;;;;;5032282;28;20040;-72
2023/06/16 08:44:40;;;;;;;7.95;7.15;;;23.60;93.80;;;;;;5034693;28;20068;-71
2023/06/16 08:47:08;;;;;;;9.68;8.77;;;23.60;92.90;;;;;;5032390;28;20040;-71
2023/06/16 08:49:39;;;;;;;7.85;6.95;;;23.60;92.00;;;;;;5019223;28;20123;-72
2023/06/16 08:52:08;;;;;;;10.43;8.70;;;23.60;92.70;;;;;;5039993;28;20048;-71
2023/06/16 08:54:48;;;;;;;8.20;7.20;;;23.70;92.30;;;;;;5031569;28;20070;-71
2023/06/16 08:57:14;;;;;;;10.05;7.85;;;23.70;92.10;;;;;;5032559;28;20049;-71
2023/06/16 08:59:45;;;;;;;9.15;7.57;;;23.90;91.80;;;;;;5037648;28;20409;-72
2023/06/16 09:02:11;;;;;;;8.40;7.50;;;23.90;91.30;;;;;;5034509;28;20257;-71
2023/06/16 09:04:37;;;;;;;7.22;6.53;;;23.90;91.30;;;;;;5015302;28;20036;-72
2023/06/16 09:07:04;;;;;;;7.50;6.80;;;24.00;92.20;;;;;;5004974;28;20139;-72
2023/06/16 09:09:30;;;;;;;7.38;6.68;;;24.10;93.00;;;;;;5007739;28;20698;-72
2023/06/16 09:12:07;;;;;;;8.27;7.38;;;24.30;92.20;;;;;;5019753;28;20063;-72
2023/06/16 09:14:36;;;;;;;7.43;6.72;;;24.40;90.90;;;;;;5052164;28;20049;-72
2023/06/16 09:17:07;;;;;;;7.68;7.00;;;24.40;90.40;;;;;;5039980;28;20565;-72
2023/06/16 09:19:37;;;;;;;7.57;6.35;;;24.40;89.10;;;;;;5030512;28;20627;-72
2023/06/16 09:22:03;;;;;;;8.85;6.75;;;24.40;90.30;;;;;;5024099;28;20060;-72
2023/06/16 09:24:30;;;;;;;8.07;6.40;;;24.60;90.80;;;;;;5022045;28;20042;-72
2023/06/16 09:26:59;;;;;;;9.20;5.82;;;24.70;88.60;;;;;;5024008;28;20160;-73
2023/06/16 09:29:28;;;;;;;6.65;5.90;;;24.70;86.70;;;;;;5032639;28;20321;-72
2023/06/16 09:32:07;;;;;;;7.85;7.05;;;24.80;84.00;;;;;;5047236;28;20048;-72
2023/06/16 09:34:33;;;;;;;8.85;6.20;;;24.70;83.60;;;;;;5039270;28;20044;-72
2023/06/16 09:36:59;;;;;;;7.82;7.03;;;24.60;82.50;;;;;;5038340;28;20040;-72
2023/06/16 09:39:26;;;;;;;7.70;6.18;;;24.60;82.20;;;;;;5007383;28;20036;-73
2023/06/16 09:41:53;;;;;;;8.65;7.60;;;24.70;85.70;;;;;;5027510;28;20041;-72
2023/06/16 09:44:23;;;;;;;8.00;6.13;;;24.80;85.80;;;;;;5020100;28;20052;-73
2023/06/16 09:46:51;;;;;;;7.72;7.03;;;24.90;85.30;;;;;;5017106;28;20565;-73
2023/06/16 09:49:24;;;;;;;6.63;5.53;;;25.00;83.40;;;;;;5002132;28;20051;-72
2023/06/16 09:51:58;;;;;;;7.82;5.22;;;25.20;82.90;;;;;;5033139;28;20056;-73
2023/06/16 09:54:25;;;;;;;5.70;5.10;;;25.30;82.20;;;;;;5032490;28;20500;-73
2023/06/16 09:56:54;;;;;;;6.68;5.05;;;25.50;81.50;;;;;;5016770;28;20044;-72
2023/06/16 09:59:20;;;;;;;6.65;4.80;;;25.50;77.30;;;;;;5022807;28;20033;-73
2023/06/16 10:01:47;;;;;;;6.28;4.53;;;25.50;76.60;;;;;;5016169;28;20098;-72
2023/06/16 10:04:15;;;;;;;6.65;4.97;;;25.60;77.20;;;;;;5013611;28;20260;-74
2023/06/16 10:07:02;;;;;;;5.22;4.60;;;25.60;75.90;;;;;;5029637;28;20131;-73
2023/06/16 10:09:50;;;;;;;6.20;4.75;;;25.80;74.70;;;;;;5014164;28;20477;-73
2023/06/16 10:12:18;;;;;;;4.88;4.38;;;25.70;75.50;;;;;;5018957;28;20055;-73
2023/06/16 10:14:45;;;;;;;5.22;4.35;;;25.80;75.40;;;;;;5017439;28;20040;-72
2023/06/16 10:17:13;;;;;;;6.40;4.10;;;25.80;70.90;;;;;;5020525;28;20040;-72
2023/06/16 10:19:46;;;;;;;4.68;4.00;;;25.80;72.10;;;;;;5034347;28;20044;-71
2023/06/16 10:22:13;;;;;;;6.18;4.38;;;25.90;74.30;;;;;;5020428;28;20199;-73
2023/06/16 10:24:39;;;;;;;7.45;4.40;;;26.00;71.60;;;;;;5002730;28;20045;-71
2023/06/16 10:27:10;;;;;;;5.25;4.03;;;26.10;69.10;;;;;;5002657;28;20044;-72
2023/06/16 10:29:38;;;;;;;5.80;4.15;;;26.10;68.00;;;;;;5020918;28;20040;-72
2023/06/16 10:32:08;;;;;;;5.55;4.03;;;26.10;69.10;;;;;;5001720;28;20055;-73
2023/06/16 10:34:35;;;;;;;4.97;3.42;;;26.10;66.50;;;;;;5031491;28;20166;-72
2023/06/16 10:37:01;;;;;;;7.00;3.88;;;26.20;68.30;;;;;;5016337;28;20098;-72
2023/06/16 10:39:43;;;;;;;5.65;3.65;;;26.30;69.00;;;;;;5034246;28;20068;-70
2023/06/16 10:42:13;;;;;;;6.60;4.00;;;26.40;67.50;;;;;;5031517;28;20106;-73
2023/06/16 10:44:40;;;;;;;4.80;3.30;;;26.50;64.60;;;;;;5018185;28;20067;-72
2023/06/16 10:47:08;;;;;;;4.22;3.60;;;26.50;65.40;;;;;;5018661;28;20049;-72
2023/06/16 10:49:52;;;;;;;6.47;3.10;;;26.50;64.60;;;;;;5035201;28;20509;-73
2023/06/16 10:52:31;;;;;;;7.55;3.90;;;26.60;63.30;;;;;;5030093;28;20051;-72
2023/06/16 10:55:14;;;;;;;6.00;4.05;;;26.60;62.30;;;;;;5028990;28;20306;-71
2023/06/16 10:57:43;;;;;;;5.00;3.78;;;26.60;63.30;;;;;;5029998;28;20045;-72
2023/06/16 11:00:14;;;;;;;6.78;3.67;;;26.70;61.70;;;;;;5031957;28;20057;-72
2023/06/16 11:02:57;;;;;;;5.03;3.28;;;26.70;60.60;;;;;;5028771;28;20544;-72
2023/06/16 11:05:23;;;;;;;6.28;3.85;;;26.70;61.90;;;;;;5013868;28;20544;-73
2023/06/16 11:08:02;;;;;;;6.10;3.30;;;26.70;59.00;;;;;;5002886;28;20098;-72
2023/06/16 11:10:28;;;;;;;4.68;3.67;;;26.70;60.40;;;;;;5032983;28;20052;-72
2023/06/16 11:12:54;;;;;;;4.20;3.28;;;26.80;59.80;;;;;;5033919;28;20519;-72
2023/06/16 11:15:20;;;;;;;6.13;3.30;;;26.80;59.50;;;;;;5032490;28;20048;-73
2023/06/16 11:17:49;;;;;;;5.13;3.22;;;26.80;58.80;;;;;;5020622;28;20071;-73
2023/06/16 11:20:16;;;;;;;5.43;3.63;;;26.80;58.10;;;;;;5004223;28;20624;-73
2023/06/16 11:22:43;;;;;;;4.18;3.10;;;26.70;58.00;;;;;;5033832;28;20132;-72
2023/06/16 11:25:09;;;;;;;4.53;3.30;;;26.70;60.30;;;;;;5032063;28;20075;-72
2023/06/16 11:27:38;;;;;;;4.40;2.97;;;26.80;59.40;;;;;;5020211;28;20516;-71
2023/06/16 11:30:08;;;;;;;5.68;3.15;;;26.80;59.90;;;;;;5017886;28;20040;-72
2023/06/16 11:32:37;;;;;;;4.38;2.78;;;26.90;60.00;;;;;;5006712;28;20069;-72
2023/06/16 11:35:04;;;;;;;4.53;3.05;;;27.10;60.60;;;;;;4988935;28;20057;-71
2023/06/16 11:37:54;;;;;;;5.75;3.80;;;27.20;60.10;;;;;;4995310;28;20047;-71
2023/06/16 11:40:28;;;;;;;4.10;3.03;;;27.30;57.80;;;;;;5009823;28;20052;-71
2023/06/16 11:42:59;;;;;;;5.50;2.95;;;27.20;57.80;;;;;;4996588;28;20562;-72
2023/06/16 11:45:26;;;;;;;4.13;3.20;;;27.20;55.60;;;;;;4995287;28;20096;-71
2023/06/16 11:47:57;;;;;;;4.97;3.15;;;27.20;54.70;;;;;;5024273;28;20057;-71
2023/06/16 11:50:24;;;;;;;6.72;2.95;;;27.20;57.70;;;;;;4998635;28;20053;-71
2023/06/16 11:52:51;;;;;;;9.52;3.20;;;27.20;55.10;;;;;;5008354;28;20525;-72
2023/06/16 11:55:17;;;;;;;4.75;2.75;;;27.20;53.50;;;;;;4997344;28;20940;-72
2023/06/16 11:57:43;;;;;;;3.22;2.53;;;27.20;56.50;;;;;;4997196;28;20274;-73
2023/06/16 12:00:11;;;;;;;4.03;3.03;;;27.30;56.20;;;;;;5014863;28;20053;-73
2023/06/16 12:02:38;;;;;;;5.88;3.20;;;27.30;55.70;;;;;;4984972;28;20065;-73
2023/06/16 12:05:06;;;;;;;3.80;2.90;;;27.30;53.10;;;;;;4997635;28;20561;-72
2023/06/16 12:07:32;;;;;;;5.67;3.37;;;27.20;54.90;;;;;;5011751;28;20049;-73
2023/06/16 12:10:05;;;;;;;4.22;3.10;;;27.20;55.10;;;;;;5010672;28;20112;-72
2023/06/16 12:12:31;;;;;;;5.90;3.47;;;27.20;55.60;;;;;;5003710;28;20541;-72
2023/06/16 12:14:59;;;;;;;3.83;3.13;;;27.20;54.00;;;;;;4991914;28;20060;-73
2023/06/16 12:17:25;;;;;;;5.97;3.40;;;27.20;54.20;;;;;;4993618;28;20052;-72
2023/06/16 12:19:52;;;;;;;4.50;3.00;;;27.20;55.60;;;;;;5011820;28;20497;-73
2023/06/16 12:22:20;;;;;;;5.18;3.28;;;27.30;56.70;;;;;;4979918;28;20329;-75
2023/06/16 12:24:47;;;;;;;4.93;3.53;;;27.40;55.80;;;;;;4976257;28;20415;-76
2023/06/16 12:27:25;;;;;;;6.18;3.53;;;27.40;54.60;;;;;;4993014;28;20661;-75
2023/06/16 12:30:02;;;;;;;4.50;2.92;;;27.30;54.30;;;;;;5008670;28;20501;-77
2023/06/16 12:32:33;;;;;;;4.75;3.00;;;27.30;53.20;;;;;;4988437;28;20065;-75
2023/06/16 12:34:59;;;;;;;5.45;3.08;;;27.30;54.00;;;;;;5011899;28;20469;-76
2023/06/16 12:37:26;;;;;;;4.57;2.88;;;27.30;52.30;;;;;;4985345;28;20123;-76
2023/06/16 12:39:58;;;;;;;4.35;3.38;;;27.30;55.40;;;;;;4999239;28;20492;-75
2023/06/16 12:42:27;;;;;;;5.18;3.22;;;27.40;55.30;;;;;;5029781;28;20080;-76